Time;durP1;ratioP1;P1;durP2;ratioP2;P2;SDS_P1;SDS_P2;PMS_P1;PMS_P2;Temp;Humidity;BMP_temperature;BMP_pressure;BME280_temperature;BME280_humidity;BME280_pressure;Samples;Min_cycle;Max_cycle;Signal;HPM_P1;HPM_P2
2021/08/30 00:01:36;;;;;;;;;4.50;4.25;;;;;17.71;62.04;101249.44;5081334;27;45591;-81
2021/08/30 00:04:01;;;;;;;;;3.25;3.25;;;;;17.74;62.01;101257.97;5061281;27;45775;-82
2021/08/30 00:06:27;;;;;;;;;3.50;3.00;;;;;17.91;61.93;101289.09;5091290;27;45712;-82
2021/08/30 00:08:52;;;;;;;;;4.00;3.75;;;;;17.67;62.51;101238.31;5093793;27;45797;-81
2021/08/30 00:11:18;;;;;;;;;5.25;4.50;;;;;17.90;62.16;101294.53;5093919;27;45870;-82
2021/08/30 00:13:45;;;;;;;;;6.00;5.00;;;;;17.77;62.47;101263.00;5093413;27;46272;-83
2021/08/30 00:16:11;;;;;;;;;5.00;4.00;;;;;17.62;62.68;101232.59;5093460;27;45779;-83
2021/08/30 00:18:36;;;;;;;;;4.75;4.75;;;;;17.66;62.29;101247.22;5090979;27;45558;-83
2021/08/30 00:21:01;;;;;;;;;5.50;5.00;;;;;17.87;62.54;101276.25;5092367;27;45501;-81
2021/08/30 00:23:27;;;;;;;;;4.75;4.75;;;;;17.73;62.29;101266.06;5073244;27;47007;-81
2021/08/30 00:25:52;;;;;;;;;6.00;6.00;;;;;17.88;62.71;101278.75;5092623;27;45666;-82
2021/08/30 00:28:18;;;;;;;;;6.25;5.25;;;;;17.74;62.72;101257.97;5079124;27;45719;-82
2021/08/30 00:30:44;;;;;;;;;6.25;5.75;;;;;17.76;62.65;101263.16;5060997;27;45659;-82
2021/08/30 00:33:09;;;;;;;;;6.75;5.00;;;;;17.78;62.99;101261.19;5072718;27;45889;-82
2021/08/30 00:35:35;;;;;;;;;6.50;6.50;;;;;17.84;62.81;101271.22;5053407;28;48430;-83
2021/08/30 00:38:00;;;;;;;;;7.00;7.00;;;;;17.81;63.12;101264.41;5070976;27;45725;-83
2021/08/30 00:40:26;;;;;;;;;6.00;5.00;;;;;17.67;62.62;101240.94;5085905;27;45656;-82
2021/08/30 00:42:51;;;;;;;;;8.25;6.25;;;;;17.76;63.21;101256.00;5072697;27;46134;-84
2021/08/30 00:45:16;;;;;;;;;6.00;6.00;;;;;17.57;62.91;101218.88;5085079;27;46073;-83
2021/08/30 00:47:43;;;;;;;;;11.00;7.50;;;;;17.69;62.96;101244.31;5053989;27;46241;-83
2021/08/30 00:50:14;;;;;;;;;9.00;6.00;;;;;17.75;62.99;101253.53;5084465;27;45655;-83
2021/08/30 00:52:41;;;;;;;;;6.00;6.00;;;;;17.80;63.50;101265.38;5073146;27;46769;-82
2021/08/30 00:55:07;;;;;;;;;6.75;5.75;;;;;17.65;63.30;101236.78;5080626;27;46088;-83
2021/08/30 00:57:33;;;;;;;;;7.00;6.00;;;;;17.79;63.51;101260.22;5077838;27;45770;-82
2021/08/30 00:59:58;;;;;;;;;7.00;6.00;;;;;17.53;63.64;101214.84;5079947;27;45870;-83
2021/08/30 01:02:24;;;;;;;;;7.50;7.25;;;;;17.63;63.46;101234.25;5080980;27;46482;-82
2021/08/30 01:04:50;;;;;;;;;7.00;7.00;;;;;17.63;63.33;101228.97;5095207;27;46247;-82
2021/08/30 01:07:38;;;;;;;;;8.00;7.00;;;;;17.80;63.47;101253.94;5093681;27;45901;-82
2021/08/30 01:10:19;;;;;;;;;8.25;7.25;;;;;17.53;63.86;101212.19;5012147;28;45603;-83
2021/08/30 01:12:55;;;;;;;;;10.50;9.00;;;;;17.63;63.67;101233.41;5027365;28;46541;-82
2021/08/30 01:15:29;;;;;;;;;8.00;6.00;;;;;17.77;63.68;101257.69;5013734;28;48589;-84
2021/08/30 01:17:57;;;;;;;;;9.00;8.00;;;;;17.77;63.82;101259.50;5020940;28;46117;-82
2021/08/30 01:20:42;;;;;;;;;8.00;7.50;;;;;17.75;64.50;101253.53;5033300;28;45615;-81
2021/08/30 01:23:09;;;;;;;;;9.00;7.00;;;;;17.73;64.27;101253.66;5023303;28;47146;-82
2021/08/30 01:25:35;;;;;;;;;7.00;7.00;;;;;17.72;64.62;101254.63;5016617;28;47616;-83
2021/08/30 01:28:01;;;;;;;;;12.00;10.25;;;;;17.70;64.89;101263.69;5030644;28;45766;-83
2021/08/30 01:30:31;;;;;;;;;9.75;8.50;;;;;17.65;64.84;101265.94;5001758;28;45901;-81
2021/08/30 01:33:01;;;;;;;;;11.50;9.75;;;;;17.60;65.46;101235.38;5032894;28;46406;-82
2021/08/30 01:35:29;;;;;;;;;9.25;8.25;;;;;17.53;65.50;101228.09;5020612;28;46530;-80
2021/08/30 01:37:58;;;;;;;;;11.75;10.00;;;;;17.43;65.56;101211.34;5017809;28;45866;-82
2021/08/30 01:40:27;;;;;;;;;14.50;11.50;;;;;17.54;65.26;101235.06;5030671;28;45885;-82
2021/08/30 01:42:55;;;;;;;;;10.50;9.50;;;;;17.57;65.47;101240.91;5024301;28;45833;-81
2021/08/30 01:45:24;;;;;;;;;9.25;9.00;;;;;17.45;65.54;101223.47;5020726;28;46134;-82
2021/08/30 01:47:52;;;;;;;;;11.00;10.25;;;;;17.63;65.81;101251.97;5065321;27;46243;-82
2021/08/30 01:50:21;;;;;;;;;9.50;9.25;;;;;17.51;65.39;101217.63;5080181;27;45772;-82
2021/08/30 01:52:47;;;;;;;;;15.25;11.00;;;;;17.64;65.39;101240.41;5080955;27;46492;-80
2021/08/30 02:03:07;;;;;;;;;12.25;11.25;;;;;17.61;65.67;101231.75;5093041;27;45697;-84
2021/08/30 02:05:33;;;;;;;;;11.00;9.00;;;;;17.61;66.12;101230.91;5092764;27;46300;-80
2021/08/30 02:07:58;;;;;;;;;12.75;11.75;;;;;17.32;65.72;101183.19;5074129;27;45788;-82
2021/08/30 02:10:24;;;;;;;;;12.25;11.00;;;;;17.61;65.68;101241.50;5093390;27;45776;-81
2021/08/30 02:12:49;;;;;;;;;11.75;11.75;;;;;17.44;65.98;101207.72;5090700;27;46019;-82
2021/08/30 02:15:15;;;;;;;;;10.50;10.00;;;;;17.60;66.08;101230.06;5093521;27;45762;-81
2021/08/30 02:17:47;;;;;;;;;11.50;10.50;;;;;17.67;66.13;101242.75;5092901;27;45940;-82
2021/08/30 02:20:17;;;;;;;;;12.25;10.50;;;;;17.47;66.09;101200.34;5093451;27;46328;-81
2021/08/30 02:22:44;;;;;;;;;10.50;8.75;;;;;17.67;66.22;101245.41;5094067;27;46157;-82
2021/08/30 02:25:13;;;;;;;;;11.00;10.50;;;;;17.68;66.73;101231.19;5092529;27;45977;-81
2021/08/30 02:27:45;;;;;;;;;12.00;10.00;;;;;17.46;66.34;101206.59;5081248;27;45693;-82
2021/08/30 02:30:29;;;;;;;;;13.00;10.00;;;;;17.55;66.94;101216.38;5080237;27;45948;-81
2021/08/30 02:32:58;;;;;;;;;10.00;10.00;;;;;17.55;66.66;101215.53;5084588;27;46789;-81
2021/08/30 02:35:28;;;;;;;;;10.25;9.25;;;;;17.67;66.74;101225.06;5075191;27;46089;-82
2021/08/30 02:37:54;;;;;;;;;10.75;10.75;;;;;17.52;66.93;101208.72;5073595;27;45790;-79
2021/08/30 02:40:23;;;;;;;;;12.75;10.50;;;;;17.66;66.36;101236.63;5080756;27;45967;-82
2021/08/30 02:42:50;;;;;;;;;12.00;11.00;;;;;17.57;66.86;101213.59;5081304;27;45616;-83
2021/08/30 02:45:16;;;;;;;;;12.00;11.50;;;;;17.66;66.84;101231.31;5093647;27;48028;-81
2021/08/30 02:47:42;;;;;;;;;7.75;6.75;;;;;17.57;66.83;101209.13;5087420;27;45846;-83
2021/08/30 02:50:09;;;;;;;;;12.25;11.00;;;;;17.58;66.94;101221.41;5093758;27;45851;-81
2021/08/30 02:52:38;;;;;;;;;11.00;11.00;;;;;17.43;67.33;101191.00;5093603;27;45960;-83
2021/08/30 02:55:04;;;;;;;;;11.00;10.00;;;;;17.68;67.07;101229.38;5074305;27;46549;-82
2021/08/30 02:57:32;;;;;;;;;12.25;10.25;;;;;17.47;67.19;101195.03;5073851;27;45728;-83
2021/08/30 02:59:58;;;;;;;;;12.50;12.50;;;;;17.66;67.80;101220.72;5075240;27;45928;-82
2021/08/30 03:02:25;;;;;;;;;12.00;8.75;;;;;17.69;67.60;101228.41;5093284;27;45781;-81
2021/08/30 03:04:53;;;;;;;;;13.00;11.25;;;;;17.70;67.26;101232.75;5092789;27;47256;-82
2021/08/30 03:07:19;;;;;;;;;12.00;10.00;;;;;17.71;67.11;101230.91;5083153;27;46029;-82
2021/08/30 03:09:44;;;;;;;;;13.00;11.75;;;;;17.72;67.56;101227.28;5094947;27;45823;-82
2021/08/30 03:12:13;;;;;;;;;9.75;9.00;;;;;17.73;67.81;101221.00;5100890;27;46008;-84
2021/08/30 03:14:40;;;;;;;;;13.75;11.00;;;;;17.73;67.51;101227.16;5104383;27;46166;-82
2021/08/30 03:17:10;;;;;;;;;11.00;10.00;;;;;17.67;67.81;101213.59;5110872;27;45096;-82
2021/08/30 03:19:39;;;;;;;;;10.75;9.75;;;;;17.66;67.83;101206.63;5101329;27;45326;-84
2021/08/30 03:22:08;;;;;;;;;12.00;10.25;;;;;17.51;68.08;101191.13;5081689;27;47862;-83
2021/08/30 03:24:34;;;;;;;;;10.25;10.25;;;;;17.69;68.26;101211.66;5087768;27;46441;-83
2021/08/30 03:27:00;;;;;;;;;12.75;11.50;;;;;17.72;68.38;101222.81;5079318;27;46112;-82
2021/08/30 03:29:28;;;;;;;;;15.00;13.00;;;;;17.68;68.22;101215.28;5084580;27;45684;-85
2021/08/30 03:31:55;;;;;;;;;12.00;10.75;;;;;17.70;68.64;101224.78;5065892;27;47002;-83
2021/08/30 03:34:21;;;;;;;;;16.00;14.00;;;;;17.66;68.14;101217.22;5081358;27;46509;-83
2021/08/30 03:36:48;;;;;;;;;13.00;11.50;;;;;17.68;68.30;101216.13;5091916;27;45611;-86
2021/08/30 03:39:16;;;;;;;;;12.75;11.50;;;;;17.65;68.85;101205.81;5108042;27;45624;-82
2021/08/30 03:41:41;;;;;;;;;11.50;11.00;;;;;17.70;68.36;101213.34;5095780;27;46366;-81
2021/08/30 03:44:09;;;;;;;;;13.50;12.25;;;;;17.71;68.49;101210.53;5115800;27;45268;-81
2021/08/30 03:46:37;;;;;;;;;14.75;13.00;;;;;17.60;68.88;101190.31;5115303;27;46079;-80
2021/08/30 03:49:04;;;;;;;;;14.50;12.50;;;;;17.70;68.73;101200.94;5106452;27;45426;-81
2021/08/30 03:51:30;;;;;;;;;11.50;11.25;;;;;17.76;68.51;101221.56;5099029;27;45651;-81
2021/08/30 03:53:56;;;;;;;;;13.25;12.25;;;;;17.72;68.61;101206.91;5105687;27;45453;-86
2021/08/30 03:56:22;;;;;;;;;15.75;15.00;;;;;17.77;68.97;101217.94;5114376;27;45029;-80
2021/08/30 03:58:49;;;;;;;;;13.75;11.50;;;;;17.72;68.68;101203.44;5106645;27;45833;-82
2021/08/30 04:01:23;;;;;;;;;13.50;12.25;;;;;17.76;68.53;101208.28;5096931;27;45517;-84
2021/08/30 04:03:50;;;;;;;;;15.00;13.50;;;;;17.78;69.29;101210.81;5077916;28;47389;-81
2021/08/30 04:06:16;;;;;;;;;14.50;14.25;;;;;17.79;69.10;101199.25;5110672;27;45332;-79
2021/08/30 04:08:42;;;;;;;;;16.00;13.50;;;;;17.79;68.65;101205.38;5096408;27;45659;-86
2021/08/30 04:11:11;;;;;;;;;14.00;12.50;;;;;17.78;69.07;101205.50;5101835;27;45809;-81
2021/08/30 04:13:39;;;;;;;;;12.50;11.75;;;;;17.82;69.26;101207.75;5109962;27;46524;-82
2021/08/30 04:16:05;;;;;;;;;18.00;14.00;;;;;17.79;69.25;101201.88;5107523;27;45801;-84
2021/08/30 04:18:31;;;;;;;;;15.25;11.75;;;;;17.84;69.02;101215.56;5094977;27;45652;-87
2021/08/30 04:20:57;;;;;;;;;16.75;16.00;;;;;17.83;69.06;101209.41;5090997;27;46637;-87
2021/08/30 04:23:22;;;;;;;;;14.00;13.00;;;;;17.81;69.33;101202.59;5100322;27;45585;-79
2021/08/30 04:25:48;;;;;;;;;18.00;17.75;;;;;17.84;69.38;101213.75;5091123;27;45761;-82
2021/08/30 04:28:13;;;;;;;;;16.75;15.75;;;;;17.72;69.10;101185.72;5100783;27;45781;-85
2021/08/30 04:30:39;;;;;;;;;17.00;15.25;;;;;17.69;69.48;101182.50;5101196;27;45748;-82
2021/08/30 04:33:09;;;;;;;;;19.50;16.75;;;;;17.78;68.90;101194.91;5089660;27;47068;-84
2021/08/30 04:35:34;;;;;;;;;17.25;13.50;;;;;17.81;69.20;101203.44;5094617;27;45700;-82
2021/08/30 04:38:00;;;;;;;;;19.50;16.00;;;;;17.82;69.34;101207.75;5098888;27;45703;-83
2021/08/30 04:40:25;;;;;;;;;18.50;17.50;;;;;17.81;69.74;101214.03;5095768;27;45621;-83
2021/08/30 04:42:51;;;;;;;;;19.25;17.00;;;;;17.77;69.35;101196.72;5098144;27;45708;-84
2021/08/30 04:45:16;;;;;;;;;17.00;15.50;;;;;17.87;69.70;101215.25;5097691;27;45536;-83
2021/08/30 04:47:42;;;;;;;;;16.50;15.00;;;;;17.83;69.41;101209.41;5092221;27;45721;-85
2021/08/30 04:50:08;;;;;;;;;20.50;18.00;;;;;17.88;69.38;101224.91;5093778;27;46469;-84
2021/08/30 04:52:33;;;;;;;;;17.50;16.25;;;;;17.85;69.37;101223.38;5095444;27;46429;-82
2021/08/30 04:54:59;;;;;;;;;19.25;16.00;;;;;17.89;69.90;101219.47;5093341;27;45615;-80
2021/08/30 04:57:24;;;;;;;;;23.00;19.25;;;;;17.85;70.06;101219.88;5100586;27;45580;-78
2021/08/30 04:59:50;;;;;;;;;17.75;17.50;;;;;17.89;69.72;101229.22;5093761;27;46541;-78
2021/08/30 05:02:17;;;;;;;;;17.75;17.25;;;;;17.84;69.59;101219.06;5096864;27;45958;-79
2021/08/30 05:04:42;;;;;;;;;18.50;17.25;;;;;17.91;69.71;101221.97;5097770;27;47074;-79
2021/08/30 05:07:07;;;;;;;;;23.25;19.50;;;;;17.84;69.98;101205.78;5103877;27;45695;-81
2021/08/30 05:09:33;;;;;;;;;20.00;19.00;;;;;17.93;69.95;101233.25;5114427;27;46957;-78
2021/08/30 05:11:58;;;;;;;;;19.25;18.75;;;;;17.92;69.57;101228.97;5112169;27;47116;-79
2021/08/30 05:14:24;;;;;;;;;23.00;20.00;;;;;17.88;69.77;101220.44;5113610;27;45115;-81
2021/08/30 05:16:49;;;;;;;;;21.50;18.25;;;;;17.90;69.83;101221.16;5119362;27;46108;-80
2021/08/30 05:19:14;;;;;;;;;23.75;19.75;;;;;17.81;69.60;101214.03;5116999;27;45797;-82
2021/08/30 05:21:55;;;;;;;;;23.25;21.00;;;;;17.94;69.79;101241.09;5117408;27;45749;-90
2021/08/30 05:24:21;;;;;;;;;24.25;20.50;;;;;17.87;70.07;101210.81;5087583;28;45706;-91
2021/08/30 05:26:46;;;;;;;;;22.25;21.00;;;;;17.68;70.27;101192.28;5101383;27;45589;-84
2021/08/30 05:29:12;;;;;;;;;21.75;20.50;;;;;17.95;70.39;101228.66;5097189;27;46139;-81
2021/08/30 05:31:37;;;;;;;;;30.25;23.50;;;;;17.92;70.04;101210.41;5098332;27;45726;-83
2021/08/30 05:34:03;;;;;;;;;22.00;21.00;;;;;17.96;70.48;101233.84;5097349;27;47393;-84
2021/08/30 05:36:31;;;;;;;;;25.50;24.25;;;;;17.97;70.23;101234.69;5070674;27;45937;-91
2021/08/30 05:38:57;;;;;;;;;26.25;25.00;;;;;17.98;70.39;101226.56;5095071;27;46312;-82
2021/08/30 05:41:22;;;;;;;;;29.50;26.00;;;;;18.00;70.01;101237.03;5092807;27;46475;-85
2021/08/30 05:43:48;;;;;;;;;31.25;23.75;;;;;17.86;70.49;101209.16;5095588;27;45721;-81
2021/08/30 05:46:16;;;;;;;;;23.25;22.00;;;;;17.99;70.41;101230.06;5098076;27;45762;-82
2021/08/30 05:48:49;;;;;;;;;20.00;19.50;;;;;17.94;70.29;101224.34;5095654;27;45592;-87
2021/08/30 05:51:15;;;;;;;;;25.75;24.50;;;;;17.99;70.10;101233.53;5094382;27;46157;-86
2021/08/30 05:53:41;;;;;;;;;27.50;25.25;;;;;18.04;70.54;101241.91;5095751;27;45568;-88
2021/08/30 05:56:07;;;;;;;;;26.00;23.75;;;;;18.07;70.36;101242.63;5096129;27;45670;-84
2021/08/30 05:58:33;;;;;;;;;24.50;22.50;;;;;18.09;70.40;101245.94;5084104;27;47734;-84
2021/08/30 06:00:59;;;;;;;;;27.50;24.75;;;;;18.06;70.27;101238.28;5096133;27;45949;-80
2021/08/30 06:03:24;;;;;;;;;28.00;25.75;;;;;18.00;70.19;101227.25;5087167;27;45730;-81
2021/08/30 06:05:49;;;;;;;;;26.75;25.00;;;;;18.01;70.41;101230.75;5092051;27;46078;-80
2021/08/30 06:08:17;;;;;;;;;23.00;22.25;;;;;18.00;70.48;101224.63;5069502;27;46107;-82
2021/08/30 06:10:42;;;;;;;;;26.75;26.25;;;;;17.98;70.21;101225.72;5092460;27;46370;-82
2021/08/30 06:13:08;;;;;;;;;29.25;24.75;;;;;18.08;69.89;101236.34;5091410;27;46838;-82
2021/08/30 06:15:33;;;;;;;;;34.25;28.00;;;;;18.06;70.21;101241.78;5094961;27;45749;-82
2021/08/30 06:17:58;;;;;;;;;29.00;27.75;;;;;18.02;69.84;101221.84;5084269;27;47846;-82
2021/08/30 06:20:24;;;;;;;;;32.75;29.75;;;;;18.10;70.27;101237.84;5084868;27;46121;-83
2021/08/30 06:22:50;;;;;;;;;29.75;27.75;;;;;18.19;70.20;101255.56;5097216;27;46032;-81
2021/08/30 06:25:15;;;;;;;;;32.50;27.25;;;;;18.16;70.03;101252.38;5094912;27;46072;-81
2021/08/30 06:27:40;;;;;;;;;25.00;24.50;;;;;18.14;70.11;101247.19;5086844;27;46580;-82
2021/08/30 06:30:06;;;;;;;;;28.25;26.00;;;;;18.08;69.69;101242.47;5099456;27;46632;-81
2021/08/30 06:32:32;;;;;;;;;31.50;29.50;;;;;18.18;70.15;101248.59;5089009;27;46219;-80
2021/08/30 06:34:57;;;;;;;;;31.25;28.75;;;;;18.26;70.27;101261.97;5089454;27;45745;-80
2021/08/30 06:37:22;;;;;;;;;33.00;30.25;;;;;18.28;70.31;101262.69;5086948;27;47149;-80
2021/08/30 06:39:48;;;;;;;;;29.25;28.75;;;;;17.94;70.12;101211.91;5091881;27;46294;-80
2021/08/30 06:42:13;;;;;;;;;31.75;28.75;;;;;18.04;70.08;101225.16;5093312;27;45646;-80
2021/08/30 06:44:38;;;;;;;;;32.75;30.00;;;;;18.32;69.73;101268.53;5092892;27;45667;-79
2021/08/30 06:47:04;;;;;;;;;33.00;28.75;;;;;18.11;69.97;101228.91;5084987;27;46661;-80
2021/08/30 06:49:30;;;;;;;;;31.75;28.25;;;;;18.24;69.71;101244.53;5089382;27;46160;-82
2021/08/30 06:51:55;;;;;;;;;33.00;30.00;;;;;18.34;69.51;101272.72;5073920;27;45740;-80
2021/08/30 06:54:21;;;;;;;;;30.00;25.50;;;;;18.35;69.56;101274.38;5075580;27;45740;-77
2021/08/30 06:56:46;;;;;;;;;31.25;29.25;;;;;18.30;69.63;101258.06;5093877;27;45812;-81
2021/08/30 06:59:11;;;;;;;;;29.00;27.25;;;;;18.40;70.04;101263.34;5093418;27;46082;-80
2021/08/30 07:01:37;;;;;;;;;31.50;29.50;;;;;18.27;69.27;101242.44;5095577;27;45722;-82
2021/08/30 07:04:02;;;;;;;;;28.00;26.25;;;;;18.40;69.43;101272.16;5097072;27;45604;-82
2021/08/30 07:06:28;;;;;;;;;32.75;30.75;;;;;18.33;69.28;101246.34;5090959;27;46496;-80
2021/08/30 07:08:53;;;;;;;;;29.00;22.50;;;;;18.34;69.67;101256.81;5091540;27;45704;-81
2021/08/30 07:11:19;;;;;;;;;23.75;21.75;;;;;18.33;69.13;101260.44;5091756;27;46102;-83
2021/08/30 07:13:44;;;;;;;;;27.50;27.50;;;;;18.50;69.40;101281.91;5086983;27;45999;-80
2021/08/30 07:16:10;;;;;;;;;27.50;25.75;;;;;18.52;69.15;101283.41;5091283;27;46092;-80
2021/08/30 07:18:35;;;;;;;;;32.75;30.00;;;;;18.55;69.32;101290.31;5089267;27;46661;-80
2021/08/30 07:21:01;;;;;;;;;28.75;26.75;;;;;18.50;69.01;101281.91;5091726;27;45830;-80
2021/08/30 07:23:29;;;;;;;;;28.25;26.25;;;;;18.55;69.35;101293.81;5090622;27;45607;-81
2021/08/30 07:25:55;;;;;;;;;31.75;27.25;;;;;18.57;68.73;101291.81;5066910;27;46510;-79
2021/08/30 07:28:20;;;;;;;;;25.75;24.00;;;;;18.59;69.01;101300.47;5090048;27;46814;-80
2021/08/30 07:30:45;;;;;;;;;27.00;25.50;;;;;18.57;68.99;101293.66;5071832;27;45702;-81
2021/08/30 07:33:11;;;;;;;;;25.75;23.75;;;;;18.59;69.24;101287.22;5091423;27;45756;-82
2021/08/30 07:35:36;;;;;;;;;26.75;25.25;;;;;18.57;68.55;101289.16;5091336;27;46639;-80
2021/08/30 07:38:02;;;;;;;;;27.00;24.75;;;;;18.60;69.03;101294.19;5089656;27;45895;-80
2021/08/30 07:40:27;;;;;;;;;25.25;23.50;;;;;18.59;68.77;101286.38;5091419;27;45718;-80
2021/08/30 07:42:52;;;;;;;;;26.25;22.00;;;;;18.69;68.74;101305.75;5092469;27;46062;-80
2021/08/30 07:45:18;;;;;;;;;24.00;22.50;;;;;18.71;68.76;101301.16;5088787;27;46356;-79
2021/08/30 07:47:43;;;;;;;;;21.50;20.75;;;;;18.60;68.79;101288.88;5091212;27;46285;-78
2021/08/30 07:50:10;;;;;;;;;24.50;22.50;;;;;18.75;68.62;101316.66;5091655;27;46255;-79
2021/08/30 07:52:36;;;;;;;;;25.25;22.75;;;;;18.74;68.36;101300.84;5092360;27;45776;-78
2021/08/30 07:55:04;;;;;;;;;23.25;21.75;;;;;18.67;68.55;101286.50;5090955;27;45874;-80
2021/08/30 07:57:29;;;;;;;;;23.25;21.75;;;;;18.82;68.47;101322.22;5091148;27;46101;-80
2021/08/30 07:59:55;;;;;;;;;22.00;21.75;;;;;18.86;68.03;101312.97;5092126;27;45784;-79
2021/08/30 08:02:20;;;;;;;;;24.50;22.50;;;;;18.87;68.14;101314.66;5093435;27;45669;-78
2021/08/30 08:04:46;;;;;;;;;25.00;23.50;;;;;18.89;68.03;101318.00;5087045;27;46548;-79
2021/08/30 08:07:11;;;;;;;;;25.00;23.25;;;;;18.91;67.91;101316.03;5082155;27;45580;-80
2021/08/30 08:09:36;;;;;;;;;25.75;23.00;;;;;18.96;67.71;101318.25;5088863;27;45702;-80
2021/08/30 08:12:02;;;;;;;;;25.50;23.25;;;;;18.96;67.57;101308.47;5075584;27;45735;-79
2021/08/30 08:14:27;;;;;;;;;25.00;23.75;;;;;19.02;67.73;101326.47;5089275;27;46329;-80
2021/08/30 08:16:53;;;;;;;;;24.25;22.75;;;;;19.00;67.14;101314.34;5080078;27;47256;-81
2021/08/30 08:19:19;;;;;;;;;22.25;20.75;;;;;19.09;67.49;101332.03;5088606;27;46089;-80
2021/08/30 08:21:44;;;;;;;;;19.50;19.50;;;;;19.12;66.91;101331.75;5095384;27;45862;-79
2021/08/30 08:24:10;;;;;;;;;23.50;21.50;;;;;19.10;66.86;101318.63;5093757;27;46776;-79
2021/08/30 08:26:36;;;;;;;;;21.75;19.75;;;;;19.16;66.91;101331.28;5095242;27;45951;-81
2021/08/30 08:29:03;;;;;;;;;21.25;20.50;;;;;19.22;66.63;101336.03;5094446;27;45579;-80
2021/08/30 08:31:28;;;;;;;;;22.00;19.75;;;;;19.12;66.26;101318.47;5093570;27;45663;-80
2021/08/30 08:33:54;;;;;;;;;24.25;21.50;;;;;19.29;65.99;101336.28;5093973;27;45968;-80
2021/08/30 08:36:21;;;;;;;;;26.25;23.25;;;;;19.28;66.12;101331.94;5093182;27;46458;-81
2021/08/30 08:38:47;;;;;;;;;19.75;18.00;;;;;19.27;65.93;101328.44;5093486;27;45675;-80
2021/08/30 08:41:13;;;;;;;;;20.25;17.50;;;;;19.32;65.94;101343.13;5092869;27;45779;-81
2021/08/30 08:43:39;;;;;;;;;23.00;21.50;;;;;19.34;65.64;101343.81;5091357;27;45756;-80
2021/08/30 08:46:05;;;;;;;;;19.00;16.75;;;;;19.26;65.66;101321.50;5094256;27;46625;-80
2021/08/30 08:48:31;;;;;;;;;17.75;17.00;;;;;19.37;65.71;101346.19;5091317;27;46046;-80
2021/08/30 08:50:57;;;;;;;;;18.00;17.25;;;;;19.39;65.64;101347.69;5092222;27;45816;-79
2021/08/30 08:53:23;;;;;;;;;21.25;18.50;;;;;19.41;64.90;101356.38;5091780;27;46342;-80
2021/08/30 08:55:49;;;;;;;;;23.25;20.75;;;;;19.37;64.88;101330.25;5092465;27;46003;-78
2021/08/30 08:58:20;;;;;;;;;23.25;20.25;;;;;19.46;64.74;101338.19;5095054;27;46091;-79
2021/08/30 09:00:58;;;;;;;;;21.50;19.50;;;;;19.51;64.81;101337.75;5096996;27;45890;-78
2021/08/30 09:03:24;;;;;;;;;17.00;16.50;;;;;19.49;64.82;101326.41;5095901;27;45751;-78
2021/08/30 09:06:02;;;;;;;;;17.25;15.75;;;;;19.58;64.35;101333.50;5094381;27;45961;-80
2021/08/30 09:08:41;;;;;;;;;19.00;18.50;;;;;19.57;64.34;101327.34;5073612;27;45629;-80
2021/08/30 09:11:15;;;;;;;;;16.75;16.00;;;;;19.69;64.19;101339.47;5092359;27;45930;-78
2021/08/30 09:13:51;;;;;;;;;19.00;17.25;;;;;19.63;63.87;101318.78;5093852;27;46424;-80
2021/08/30 09:16:22;;;;;;;;;18.75;17.75;;;;;19.74;64.07;101331.03;5094035;27;46298;-79
2021/08/30 09:18:48;;;;;;;;;17.50;16.00;;;;;19.82;63.46;101340.88;5092747;27;45885;-79
2021/08/30 09:21:17;;;;;;;;;20.50;18.75;;;;;19.84;63.29;101350.41;5092508;27;45756;-78
2021/08/30 09:23:45;;;;;;;;;17.00;16.25;;;;;19.87;63.51;101346.59;5087819;27;45812;-81
2021/08/30 09:26:18;;;;;;;;;16.50;14.75;;;;;19.89;62.99;101356.09;5085398;27;45829;-81
2021/08/30 09:28:55;;;;;;;;;18.75;17.50;;;;;19.91;62.86;101342.66;5080745;27;45691;-81
2021/08/30 09:31:22;;;;;;;;;17.25;15.75;;;;;19.96;62.42;101353.69;5086919;27;45817;-80
2021/08/30 09:33:49;;;;;;;;;18.25;15.50;;;;;19.96;62.47;101346.53;5092984;27;45762;-80
2021/08/30 09:36:15;;;;;;;;;19.50;17.75;;;;;19.95;62.44;101344.03;5092636;27;46203;-80
2021/08/30 09:38:41;;;;;;;;;15.25;14.25;;;;;20.07;62.75;101350.81;5088644;27;45901;-80
2021/08/30 09:41:08;;;;;;;;;17.00;14.75;;;;;20.11;62.21;101354.81;5089628;27;45501;-80
2021/08/30 09:43:34;;;;;;;;;18.50;17.00;;;;;20.13;62.09;101350.19;5077643;28;46113;-80
2021/08/30 09:46:02;;;;;;;;;15.25;15.25;;;;;20.16;62.31;101354.34;5092790;27;46537;-80
2021/08/30 09:48:28;;;;;;;;;20.25;16.50;;;;;20.15;62.12;101350.84;5095353;27;45888;-80
2021/08/30 09:51:00;;;;;;;;;15.50;14.50;;;;;20.17;61.71;101348.91;5093146;27;45745;-80
2021/08/30 09:53:25;;;;;;;;;17.75;15.00;;;;;20.20;61.81;101342.41;5062377;28;46674;-81
2021/08/30 09:55:51;;;;;;;;;15.25;13.25;;;;;20.24;61.63;101347.31;5081334;27;45757;-79
2021/08/30 09:58:18;;;;;;;;;18.25;15.25;;;;;20.26;61.64;101347.97;5091495;27;46113;-79
2021/08/30 10:00:46;;;;;;;;;15.50;13.75;;;;;20.30;61.76;101337.84;5087783;27;45606;-79
2021/08/30 10:03:12;;;;;;;;;14.25;13.00;;;;;20.30;61.23;101341.34;5085283;27;46795;-80
2021/08/30 10:05:40;;;;;;;;;16.00;14.00;;;;;20.37;60.94;101350.41;5084911;27;47028;-78
2021/08/30 10:08:06;;;;;;;;;14.25;14.00;;;;;20.38;61.08;101341.44;5068968;27;45693;-78
2021/08/30 10:10:32;;;;;;;;;15.25;15.25;;;;;20.39;60.61;101339.63;5092391;27;45945;-80
2021/08/30 10:12:59;;;;;;;;;16.00;15.75;;;;;20.41;60.78;101337.63;5087282;27;45665;-80
2021/08/30 10:15:26;;;;;;;;;14.50;14.50;;;;;20.43;61.03;101333.84;5091468;27;45965;-79
2021/08/30 10:17:53;;;;;;;;;15.75;14.75;;;;;20.46;60.35;101341.50;5088966;27;45975;-78
2021/08/30 10:20:22;;;;;;;;;14.75;14.25;;;;;20.41;60.71;101324.31;5092067;27;45674;-80
2021/08/30 10:23:03;;;;;;;;;16.25;15.50;;;;;20.48;60.30;101334.19;5092045;27;45873;-81
2021/08/30 10:25:32;;;;;;;;;14.75;13.00;;;;;20.52;60.28;101346.19;5091949;27;45836;-80
2021/08/30 10:28:09;;;;;;;;;12.75;12.75;;;;;20.55;59.90;101334.41;5081252;27;45981;-81
2021/08/30 10:30:37;;;;;;;;;12.75;10.25;;;;;20.58;60.07;101335.91;5085394;27;45851;-78
2021/08/30 10:33:08;;;;;;;;;13.75;13.25;;;;;20.62;59.86;101342.63;5092310;27;46471;-78
2021/08/30 10:35:37;;;;;;;;;12.50;9.75;;;;;20.63;59.71;101331.81;5093561;27;46230;-79
2021/08/30 10:38:06;;;;;;;;;12.25;11.50;;;;;20.67;59.84;101335.84;5079555;27;45714;-83
2021/08/30 10:40:34;;;;;;;;;15.25;11.75;;;;;20.71;59.60;101331.88;5080781;27;45851;-82
2021/08/30 10:43:02;;;;;;;;;13.50;12.25;;;;;20.74;59.46;101330.69;5091581;27;46636;-83
2021/08/30 10:45:30;;;;;;;;;14.00;13.50;;;;;20.77;59.13;101328.56;5065621;28;46988;-82
2021/08/30 10:48:04;;;;;;;;;13.50;12.75;;;;;20.81;59.02;101337.91;5080680;27;45659;-80
2021/08/30 10:50:30;;;;;;;;;13.25;12.00;;;;;20.83;59.04;101322.63;5089247;27;45756;-82
2021/08/30 10:53:07;;;;;;;;;17.00;14.50;;;;;20.81;59.25;101337.91;5076896;27;47725;-80
2021/08/30 10:55:39;;;;;;;;;14.00;12.75;;;;;20.89;58.88;101331.81;5077924;27;46017;-81
2021/08/30 10:58:16;;;;;;;;;14.00;13.00;;;;;20.91;58.67;101343.13;5090366;27;45636;-80
2021/08/30 11:00:41;;;;;;;;;14.25;12.50;;;;;20.91;59.23;101340.47;5092036;27;45748;-81
2021/08/30 11:03:07;;;;;;;;;12.50;12.50;;;;;20.96;59.12;101348.81;5089422;27;46837;-82
2021/08/30 11:05:33;;;;;;;;;14.00;13.00;;;;;21.01;58.67;101340.34;5095271;27;46132;-82
2021/08/30 11:07:58;;;;;;;;;10.00;9.00;;;;;21.06;58.24;101338.03;5092385;27;45778;-79
2021/08/30 11:10:27;;;;;;;;;14.25;10.25;;;;;21.06;58.51;101322.03;5084168;27;46051;-79
2021/08/30 11:12:52;;;;;;;;;13.75;12.25;;;;;21.14;58.21;101338.97;5095071;27;45702;-80
2021/08/30 11:15:19;;;;;;;;;13.00;11.75;;;;;21.18;58.12;101337.63;5095560;27;46338;-79
2021/08/30 11:17:44;;;;;;;;;14.00;12.75;;;;;21.24;58.06;101339.66;5080458;27;45746;-79
2021/08/30 11:20:10;;;;;;;;;15.25;14.00;;;;;21.22;57.84;101323.00;5091732;27;45845;-79